Terminal Aerodrome Forecast
Issued by NWS Twin Cities, MN

Home | Current Version | Previous Version | Text Only | Print | Product List | Glossary Off
Versions: 1 2 3 4 5 6 7 8 9 10 11 12 13 14 15 16 17 18

000
FTUS43 KMPX 201720
TAFEAU
TAF
KEAU 201720Z 2018/2118 12011KT P6SM VCSH SCT015 OVC040
     FM201900 14010KT 6SM -SHRA BR VCTS SCT015 OVC025CB
      TEMPO 2019/2022 2SM SHRA BR OVC010
     FM202200 18011KT 3SM -RA BR OVC008
     FM210400 23010KT 5SM BR VCSH SCT008 OVC012
     FM210700 27009KT P6SM SCT020
     FM211000 26003KT 4SM BR FEW007
     FM211400 21004KT P6SM SCT250=

USA.gov is the U.S. government's official web portal to all federal, state and local government web resources and services.